Sacramento, California
Traffic Map
Current Weather Conditions
Sacramento, California
Clear
Clear
61°
Feels Like: 61°
Wind Chill: 61° Ceiling: Unl
Heat Index: 61° Visibility: 10mi
Dew Point: 52° Wind: 5mph
Humidity: 72% Direction: 160° (SSE)
Pressure: 30.01in Gusts: 0mph
Raw Report DataKSAC 281553Z 16004KT 10SM CLR 16/11 A3001 RMK AO2 SLP162 T01610111
Traffic Incident Summary
Active as of:
Severity:
Category:
InformationThere was an issue retrieving the traffic information for this location. Please try a different location or try again shortly.
Advertisements
Track Severe Weather on mobile